Time;durP1;ratioP1;P1;durP2;ratioP2;P2;SDS_P1;SDS_P2;PMS_P1;PMS_P2;Temp;Humidity;BMP_temperature;BMP_pressure;BME280_temperature;BME280_humidity;BME280_pressure;Samples;Min_cycle;Max_cycle;Signal;HPM_P1;HPM_P2
2022/01/06 00:00:09;;;;;;;27.47;17.57;;;;;;;5.79;84.52;97946.25;1714735;82;21752;-59
2022/01/06 00:02:39;;;;;;;26.30;18.17;;;;;;;5.80;84.61;97958.65;1716953;82;20926;-59
2022/01/06 00:05:06;;;;;;;25.63;18.60;;;;;;;5.81;84.75;97964.38;1718157;81;20906;-59
2022/01/06 00:07:32;;;;;;;25.27;18.70;;;;;;;5.82;84.68;97974.12;1717716;81;21054;-60
2022/01/06 00:10:00;;;;;;;32.47;22.63;;;;;;;5.83;84.69;97961.16;1705086;82;22326;-60
2022/01/06 00:12:39;;;;;;;28.10;19.13;;;;;;;5.80;84.75;97957.31;1719068;81;21121;-59
2022/01/06 00:15:09;;;;;;;30.17;19.73;;;;;;;5.80;84.67;97962.66;1688793;82;21109;-59
2022/01/06 00:25:37;;;;;;;16.93;11.43;;;;;;;5.63;84.72;97974.77;1717813;81;21413;-60
2022/01/06 00:28:04;;;;;;;14.73;9.10;;;;;;;5.60;84.58;97973.16;1718044;81;21061;-60
2022/01/06 00:30:30;;;;;;;12.77;8.70;;;;;;;5.59;84.65;97967.89;1694438;82;20934;-61
2022/01/06 00:32:56;;;;;;;12.17;7.77;;;;;;;5.59;84.55;97970.56;1718748;81;21138;-59
2022/01/06 00:35:23;;;;;;;10.33;7.77;;;;;;;5.56;84.50;97970.25;1720522;81;21293;-58
2022/01/06 00:37:49;;;;;;;8.23;6.63;;;;;;;5.53;84.39;97969.58;1722806;81;21184;-58
2022/01/06 00:40:15;;;;;;;6.67;5.60;;;;;;;5.43;84.38;97973.23;1722037;81;21262;-58
2022/01/06 00:42:42;;;;;;;5.73;4.50;;;;;;;5.38;84.42;97986.42;1723103;81;21066;-58
2022/01/06 00:45:09;;;;;;;6.07;3.67;;;;;;;5.35;84.52;97985.28;1721236;81;21059;-57
2022/01/06 00:47:36;;;;;;;4.03;3.13;;;;;;;5.30;84.57;97999.72;1724154;81;21115;-58
2022/01/06 00:50:03;;;;;;;3.90;3.13;;;;;;;5.27;84.65;98004.37;1719630;81;21296;-58
2022/01/06 00:52:33;;;;;;;4.23;2.37;;;;;;;5.24;84.69;97996.06;1699578;83;21685;-58
2022/01/06 00:54:59;;;;;;;3.83;2.00;;;;;;;5.20;84.77;98000.30;1723351;81;21475;-57
2022/01/06 00:57:25;;;;;;;2.47;1.80;;;;;;;5.15;84.85;97997.89;1721287;81;21477;-58
2022/01/06 00:59:51;;;;;;;2.60;1.53;;;;;;;5.13;84.86;98007.77;1717475;81;21009;-58
2022/01/06 01:02:18;;;;;;;2.63;1.67;;;;;;;5.09;85.02;98011.56;1717937;81;21060;-58
2022/01/06 01:04:44;;;;;;;2.70;1.70;;;;;;;5.10;85.20;98009.77;1718916;81;21123;-58
2022/01/06 01:07:10;;;;;;;2.80;1.37;;;;;;;5.09;85.22;98011.56;1719575;81;21115;-58
2022/01/06 01:09:37;;;;;;;3.97;1.50;;;;;;;5.10;85.28;98021.77;1714090;81;21059;-59
2022/01/06 01:12:04;;;;;;;1.80;1.00;;;;;;;5.09;85.33;98012.03;1729834;81;21135;-59
2022/01/06 01:14:43;;;;;;;1.77;1.10;;;;;;;5.09;85.28;98014.70;1725909;81;21275;-59
2022/01/06 01:17:02;;;;;;;1.67;1.20;;;;;;;5.06;85.30;98020.19;1723328;81;21155;-59
2022/01/06 01:19:30;;;;;;;1.97;1.00;;;;;;;5.05;85.36;98015.80;1725313;82;21099;-59
2022/01/06 01:21:57;;;;;;;2.13;1.50;;;;;;;5.04;85.43;98022.93;1748588;80;21619;-59
2022/01/06 01:24:23;;;;;;;1.40;1.00;;;;;;;5.08;85.56;98030.31;1726878;81;22090;-58
2022/01/06 01:26:50;;;;;;;1.50;0.90;;;;;;;5.14;85.67;98039.30;1727214;81;22410;-59
2022/01/06 01:29:18;;;;;;;1.33;1.00;;;;;;;5.19;85.58;98030.61;1730509;81;21713;-59
2022/01/06 01:31:53;;;;;;;1.27;0.97;;;;;;;5.21;85.48;98027.36;1731148;81;20908;-60
2022/01/06 01:34:20;;;;;;;1.20;1.00;;;;;;;5.24;85.53;98030.73;1726751;81;21049;-60
2022/01/06 01:36:44;;;;;;;1.37;1.13;;;;;;;5.26;85.43;98022.19;1726541;81;21241;-58
2022/01/06 01:39:11;;;;;;;1.57;1.10;;;;;;;5.25;85.39;98008.92;1729484;81;20976;-58
2022/01/06 01:41:37;;;;;;;1.13;0.77;;;;;;;5.24;85.30;98010.73;1727904;81;20886;-58
2022/01/06 01:44:11;;;;;;;1.27;0.90;;;;;;;5.24;85.32;98005.86;1727754;81;21404;-59
2022/01/06 01:46:42;;;;;;;1.73;0.90;;;;;;;5.23;85.36;98005.00;1728780;82;20958;-58
2022/01/06 01:49:31;;;;;;;1.40;0.80;;;;;;;5.25;85.38;98005.79;1727326;81;21086;-58
2022/01/06 01:51:45;;;;;;;1.07;0.70;;;;;;;5.28;85.41;98002.06;1726706;81;21004;-58
2022/01/06 01:54:11;;;;;;;1.33;0.80;;;;;;;5.31;85.45;98007.25;1726821;81;20950;-59
2022/01/06 01:56:38;;;;;;;1.40;0.73;;;;;;;5.36;85.41;98005.68;1729138;81;21557;-58
2022/01/06 01:59:05;;;;;;;1.07;0.87;;;;;;;5.37;85.34;97996.70;1729016;81;21317;-58
2022/01/06 02:01:31;;;;;;;3.00;1.07;;;;;;;5.38;85.30;98011.30;1727182;81;22030;-58
2022/01/06 02:03:58;;;;;;;1.33;1.10;;;;;;;5.38;85.26;98025.97;1728063;82;21287;-58
2022/01/06 02:06:24;;;;;;;1.67;1.20;;;;;;;5.39;85.22;98025.03;1724261;81;21136;-58
2022/01/06 02:08:51;;;;;;;1.33;0.90;;;;;;;5.39;85.15;98009.49;1723476;81;21107;-58
2022/01/06 02:11:18;;;;;;;2.83;0.90;;;;;;;5.40;85.07;98000.55;1711218;81;21033;-58
2022/01/06 02:13:48;;;;;;;1.23;1.00;;;;;;;5.40;85.09;97985.88;1707322;82;21362;-58
2022/01/06 02:16:25;;;;;;;1.80;1.30;;;;;;;5.41;85.11;98000.94;1711833;82;21002;-58
2022/01/06 02:18:51;;;;;;;1.60;0.70;;;;;;;5.44;85.16;98001.64;1708684;82;21163;-58
2022/01/06 02:21:18;;;;;;;1.87;1.10;;;;;;;5.47;85.01;98009.46;1708719;82;21049;-59
2022/01/06 02:23:44;;;;;;;2.13;1.10;;;;;;;5.48;84.92;98028.53;1707780;82;21065;-58
2022/01/06 02:26:10;;;;;;;1.30;0.90;;;;;;;5.49;84.94;98030.73;1706166;82;23032;-59
2022/01/06 02:28:37;;;;;;;1.20;1.00;;;;;;;5.49;84.87;98042.73;1712025;81;21054;-59
2022/01/06 02:31:03;;;;;;;3.27;1.30;;;;;;;5.48;84.78;98055.22;1711749;81;21069;-60
2022/01/06 02:33:30;;;;;;;1.47;0.90;;;;;;;5.47;84.77;98059.30;1707542;81;20973;-58
2022/01/06 02:35:57;;;;;;;1.70;0.80;;;;;;;5.45;84.71;98054.04;1709267;81;21076;-58
2022/01/06 02:38:23;;;;;;;3.13;0.80;;;;;;;5.44;84.60;98051.02;1707308;82;21164;-58
2022/01/06 02:40:50;;;;;;;0.70;0.70;;;;;;;5.41;84.57;98052.97;1709377;81;21065;-58
2022/01/06 02:43:18;;;;;;;0.70;0.60;;;;;;;5.41;84.57;98068.98;1710474;82;21049;-59
2022/01/06 02:45:46;;;;;;;0.73;0.60;;;;;;;5.40;84.61;98076.59;1711478;82;21025;-59
2022/01/06 02:48:14;;;;;;;0.60;0.50;;;;;;;5.39;84.57;98069.05;1710719;82;21042;-58
2022/01/06 02:50:45;;;;;;;0.83;0.60;;;;;;;5.42;84.62;98079.58;1711945;82;22608;-58
2022/01/06 02:53:12;;;;;;;0.97;0.40;;;;;;;5.42;84.46;98098.25;1714038;82;22069;-58
2022/01/06 02:55:45;;;;;;;1.80;0.60;;;;;;;5.40;84.50;98093.94;1710223;81;21033;-58
2022/01/06 02:58:10;;;;;;;1.40;0.60;;;;;;;5.38;84.40;98099.81;1707291;82;21057;-58
2022/01/06 03:00:37;;;;;;;1.23;0.50;;;;;;;5.36;84.33;98101.73;1708564;81;21119;-57
2022/01/06 03:03:03;;;;;;;0.97;0.50;;;;;;;5.36;84.28;98113.73;1711524;81;21534;-58
2022/01/06 03:05:30;;;;;;;0.50;0.40;;;;;;;5.33;84.33;98110.28;1708879;82;21472;-58
2022/01/06 03:07:57;;;;;;;0.60;0.40;;;;;;;5.32;84.30;98116.55;1724273;81;21072;-56
2022/01/06 03:10:23;;;;;;;0.43;0.40;;;;;;;5.30;84.30;98117.56;1708299;81;20919;-56
2022/01/06 03:12:50;;;;;;;0.40;0.30;;;;;;;5.31;84.32;98108.63;1712646;82;21597;-57
2022/01/06 03:15:19;;;;;;;0.40;0.40;;;;;;;5.33;84.28;98105.41;1712279;81;21717;-56
2022/01/06 03:17:49;;;;;;;0.50;0.43;;;;;;;5.33;84.24;98109.42;1733524;81;21355;-56
2022/01/06 03:20:16;;;;;;;0.53;0.50;;;;;;;5.31;84.22;98124.16;1724989;81;21053;-56
2022/01/06 03:22:43;;;;;;;0.60;0.60;;;;;;;5.31;84.18;98119.30;1726472;81;21046;-55
2022/01/06 03:25:11;;;;;;;0.63;0.50;;;;;;;5.29;84.16;98112.70;1728460;81;21475;-55
2022/01/06 03:27:39;;;;;;;0.70;0.50;;;;;;;5.29;84.10;98118.04;1724818;81;21813;-58
2022/01/06 03:30:08;;;;;;;0.43;0.40;;;;;;;5.27;84.09;98099.91;1730352;81;21072;-57
2022/01/06 03:32:35;;;;;;;0.60;0.40;;;;;;;5.28;84.11;98092.77;1728628;81;20993;-55
2022/01/06 03:35:04;;;;;;;0.60;0.40;;;;;;;5.31;84.07;98095.28;1724471;81;21567;-57
2022/01/06 03:37:30;;;;;;;0.40;0.40;;;;;;;5.31;84.03;98096.63;1724736;81;21131;-57
2022/01/06 03:39:57;;;;;;;0.63;0.50;;;;;;;5.33;84.03;98098.27;1722555;81;21139;-60
2022/01/06 03:42:23;;;;;;;0.70;0.63;;;;;;;5.37;83.97;98092.28;1726193;81;21143;-58
2022/01/06 03:44:50;;;;;;;1.10;0.60;;;;;;;5.36;83.79;98088.39;1726474;81;21088;-56
2022/01/06 03:47:17;;;;;;;0.60;0.50;;;;;;;5.35;83.73;98098.67;1722718;81;21147;-57
2022/01/06 03:49:43;;;;;;;0.87;0.50;;;;;;;5.29;83.63;98102.03;1727449;81;21087;-59
2022/01/06 03:52:09;;;;;;;0.57;0.47;;;;;;;5.28;83.62;98114.11;1725245;81;21713;-56
2022/01/06 03:54:35;;;;;;;0.70;0.50;;;;;;;5.27;83.63;98111.91;1724294;81;21073;-57
2022/01/06 03:57:02;;;;;;;0.53;0.40;;;;;;;5.28;83.62;98117.64;1726550;81;21037;-59
2022/01/06 03:59:29;;;;;;;1.30;0.50;;;;;;;5.29;83.68;98114.51;1724109;81;21564;-57
2022/01/06 04:01:55;;;;;;;2.33;0.50;;;;;;;5.30;83.69;98121.57;1725620;81;21105;-59
2022/01/06 04:04:21;;;;;;;1.93;0.53;;;;;;;5.31;83.72;98117.50;1726285;81;21559;-56
2022/01/06 04:06:48;;;;;;;0.80;0.70;;;;;;;5.33;83.68;98119.62;1731178;81;20907;-55
2022/01/06 04:09:14;;;;;;;1.00;0.80;;;;;;;5.32;83.60;98121.03;1728452;81;20911;-56
2022/01/06 04:11:41;;;;;;;1.60;0.70;;;;;;;5.30;83.56;98119.77;1730881;81;20914;-58
2022/01/06 04:14:07;;;;;;;0.80;0.60;;;;;;;5.29;83.45;98119.37;1729794;81;21014;-55
2022/01/06 04:16:36;;;;;;;1.17;0.70;;;;;;;5.29;83.44;98118.04;1726944;81;21813;-57
2022/01/06 04:19:02;;;;;;;2.40;0.80;;;;;;;5.29;83.38;98127.38;1729332;81;20998;-56
2022/01/06 04:21:28;;;;;;;3.80;0.70;;;;;;;5.29;83.38;98136.72;1729821;81;20933;-58
2022/01/06 04:23:55;;;;;;;1.10;0.80;;;;;;;5.28;83.33;98127.45;1729248;81;21049;-55
2022/01/06 04:26:21;;;;;;;0.97;0.80;;;;;;;5.30;83.34;98131.77;1730786;81;20922;-56
2022/01/06 04:28:47;;;;;;;0.83;0.70;;;;;;;5.32;83.37;98135.23;1728484;81;21185;-55
2022/01/06 04:31:13;;;;;;;1.47;1.00;;;;;;;5.33;83.29;98136.09;1728950;81;21070;-58
2022/01/06 04:33:40;;;;;;;1.30;1.17;;;;;;;5.32;83.23;98137.90;1728055;81;21024;-55
2022/01/06 04:36:06;;;;;;;1.00;0.90;;;;;;;5.32;83.20;98142.38;1729070;81;20993;-59
2022/01/06 04:38:33;;;;;;;1.10;0.80;;;;;;;5.29;83.08;98145.19;1731006;81;21016;-56
2022/01/06 04:41:00;;;;;;;0.93;0.73;;;;;;;5.27;83.06;98144.43;1731585;81;21121;-57
2022/01/06 04:43:26;;;;;;;1.63;0.70;;;;;;;5.26;83.14;98151.56;1730782;81;20922;-56
2022/01/06 04:45:53;;;;;;;1.00;0.80;;;;;;;5.26;83.09;98148.91;1733434;81;21405;-57
2022/01/06 04:48:19;;;;;;;0.90;0.80;;;;;;;5.26;83.08;98150.23;1731095;81;21395;-57
2022/01/06 04:50:46;;;;;;;1.10;0.90;;;;;;;5.28;83.17;98152.33;1728667;81;21005;-58
2022/01/06 04:53:12;;;;;;;1.63;1.00;;;;;;;5.29;83.08;98146.52;1724665;81;21025;-58
2022/01/06 04:55:39;;;;;;;1.33;1.20;;;;;;;5.30;83.14;98155.78;1725982;81;21679;-57
2022/01/06 04:58:05;;;;;;;1.87;1.37;;;;;;;5.30;83.03;98153.11;1724210;81;21649;-57
2022/01/06 05:00:32;;;;;;;2.77;1.00;;;;;;;5.30;82.88;98146.45;1725353;81;21066;-57
2022/01/06 05:02:58;;;;;;;1.37;1.10;;;;;;;5.29;82.82;98143.86;1724293;81;21672;-58
2022/01/06 05:05:24;;;;;;;2.13;1.20;;;;;;;5.29;82.81;98161.20;1724401;81;21121;-59
2022/01/06 05:07:51;;;;;;;1.47;1.37;;;;;;;5.28;82.78;98159.00;1725727;81;21040;-57
2022/01/06 05:10:17;;;;;;;1.37;1.27;;;;;;;5.28;82.81;98166.13;1724374;81;21068;-59
2022/01/06 05:12:44;;;;;;;1.30;1.20;;;;;;;5.29;82.83;98176.73;1727877;81;21028;-57
2022/01/06 05:15:12;;;;;;;1.43;1.33;;;;;;;5.32;82.75;98181.05;1747907;80;20897;-56
2022/01/06 05:17:39;;;;;;;1.43;1.33;;;;;;;5.31;82.71;98184.66;1729524;81;21065;-56
2022/01/06 05:20:06;;;;;;;2.80;1.60;;;;;;;5.32;82.58;98187.73;1729417;81;22578;-58
2022/01/06 05:25:27;;;;;;;1.90;1.80;;;;;;;5.33;82.48;98192.13;1832591;75;22452;-55
2022/01/06 05:27:54;;;;;;;2.80;2.03;;;;;;;5.26;82.44;98196.05;1799387;77;21060;-59
2022/01/06 05:30:21;;;;;;;3.10;2.27;;;;;;;5.24;82.40;98201.46;1801636;77;22855;-60
2022/01/06 05:32:47;;;;;;;1.57;1.47;;;;;;;5.22;82.40;98201.14;1801896;77;20997;-60
2022/01/06 05:35:13;;;;;;;2.80;1.40;;;;;;;5.21;82.37;98190.94;1796563;77;21311;-58
2022/01/06 05:37:39;;;;;;;1.83;1.73;;;;;;;5.21;82.42;98197.61;1794999;77;22189;-60
2022/01/06 05:40:07;;;;;;;2.37;1.70;;;;;;;5.24;82.52;98197.46;1800121;77;21591;-58
2022/01/06 05:42:33;;;;;;;2.20;1.97;;;;;;;5.28;82.42;98202.16;1798180;77;22357;-59
2022/01/06 05:44:59;;;;;;;3.80;1.70;;;;;;;5.29;82.33;98206.08;1801062;78;20918;-57
2022/01/06 05:47:26;;;;;;;2.30;1.70;;;;;;;5.28;82.22;98216.36;1796367;77;21011;-57
2022/01/06 05:49:52;;;;;;;1.77;1.43;;;;;;;5.28;82.17;98223.49;1801835;78;21041;-58
2022/01/06 05:52:18;;;;;;;2.17;1.67;;;;;;;5.27;82.06;98225.30;1801301;78;21138;-58
2022/01/06 05:54:45;;;;;;;2.83;1.47;;;;;;;5.25;82.03;98239.20;1799049;78;21115;-60
2022/01/06 05:57:13;;;;;;;2.73;1.77;;;;;;;5.25;82.10;98241.88;1783992;77;21072;-60
2022/01/06 05:59:40;;;;;;;1.70;1.30;;;;;;;5.27;82.04;98242.64;1781178;79;21500;-58
2022/01/06 06:02:06;;;;;;;2.37;1.93;;;;;;;5.28;81.96;98251.03;1776572;78;21128;-57
2022/01/06 06:04:34;;;;;;;2.37;2.03;;;;;;;5.28;81.92;98252.84;1777471;78;21587;-58
2022/01/06 06:07:00;;;;;;;2.40;2.20;;;;;;;5.27;81.88;98259.98;1747936;81;21764;-57
2022/01/06 06:09:26;;;;;;;2.60;2.40;;;;;;;5.25;81.85;98257.02;1723077;81;22282;-59
2022/01/06 06:11:53;;;;;;;1.93;1.33;;;;;;;5.23;81.88;98253.09;1723697;81;21084;-60
2022/01/06 06:14:19;;;;;;;2.10;1.50;;;;;;;5.25;81.83;98257.02;1716603;81;21005;-57
2022/01/06 06:16:46;;;;;;;1.77;1.40;;;;;;;5.25;81.82;98267.69;1726048;81;21112;-59
2022/01/06 06:19:12;;;;;;;1.73;1.30;;;;;;;5.25;81.89;98275.22;1725945;81;21090;-59
2022/01/06 06:21:38;;;;;;;2.50;1.97;;;;;;;5.29;81.79;98267.91;1727619;81;21080;-57
2022/01/06 06:24:06;;;;;;;2.30;1.90;;;;;;;5.30;81.79;98274.98;1723801;81;21056;-59
2022/01/06 06:26:33;;;;;;;2.07;1.87;;;;;;;5.32;81.66;98267.77;1722870;81;21132;-58
2022/01/06 06:28:59;;;;;;;2.70;2.20;;;;;;;5.31;81.62;98275.38;1724131;81;21117;-60
2022/01/06 06:31:25;;;;;;;2.23;2.07;;;;;;;5.30;81.53;98282.98;1721554;81;21700;-58
2022/01/06 06:33:52;;;;;;;3.60;3.30;;;;;;;5.28;81.49;98280.38;1720865;81;21572;-57
2022/01/06 06:36:18;;;;;;;7.00;2.10;;;;;;;5.25;81.44;98287.23;1720563;81;21522;-60
2022/01/06 06:38:44;;;;;;;2.00;1.80;;;;;;;5.23;81.42;98295.77;1721963;81;21809;-57
2022/01/06 06:41:10;;;;;;;2.67;2.20;;;;;;;5.20;81.41;98297.25;1717472;81;21723;-60
2022/01/06 06:43:37;;;;;;;2.23;2.00;;;;;;;5.19;81.48;98298.18;1722484;81;21464;-59
2022/01/06 06:46:03;;;;;;;2.13;1.93;;;;;;;5.20;81.47;98295.05;1718996;81;21047;-59
2022/01/06 06:48:29;;;;;;;3.17;2.40;;;;;;;5.21;81.49;98300.78;1719777;81;21105;-57
2022/01/06 06:50:58;;;;;;;2.30;1.83;;;;;;;5.23;81.53;98303.77;1722273;81;21084;-57
2022/01/06 06:53:24;;;;;;;4.17;2.90;;;;;;;5.26;81.57;98300.97;1723393;81;21037;-59
2022/01/06 06:55:50;;;;;;;3.07;2.73;;;;;;;5.27;81.48;98306.66;1721348;81;22446;-57
2022/01/06 06:58:16;;;;;;;3.23;2.50;;;;;;;5.28;81.45;98307.06;1720491;81;21065;-57
2022/01/06 07:00:43;;;;;;;4.73;2.87;;;;;;;5.25;81.34;98317.91;1722998;81;21100;-57
2022/01/06 07:03:10;;;;;;;2.93;2.37;;;;;;;5.24;81.30;98321.52;1718958;81;21581;-58
2022/01/06 07:05:37;;;;;;;4.57;2.50;;;;;;;5.22;81.28;98315.38;1718094;81;22575;-60
2022/01/06 07:08:04;;;;;;;2.20;1.40;;;;;;;5.24;81.27;98329.98;1718674;81;21542;-57
2022/01/06 07:10:30;;;;;;;3.20;2.47;;;;;;;5.24;81.32;98317.98;1718797;81;21046;-60
2022/01/06 07:12:58;;;;;;;3.27;2.00;;;;;;;5.27;81.29;98328.01;1739521;81;21415;-58
2022/01/06 07:15:25;;;;;;;2.57;2.33;;;;;;;5.28;81.35;98327.07;1750475;80;21057;-56
2022/01/06 07:17:52;;;;;;;2.60;2.40;;;;;;;5.31;81.22;98339.41;1749841;80;21144;-57
2022/01/06 07:20:19;;;;;;;2.53;2.30;;;;;;;5.32;81.12;98330.00;1747609;80;22331;-57
2022/01/06 07:22:46;;;;;;;2.67;2.10;;;;;;;5.29;80.98;98318.13;1720265;81;20974;-55
2022/01/06 07:25:13;;;;;;;2.23;1.80;;;;;;;5.28;80.89;98315.53;1725884;81;20957;-56
2022/01/06 07:27:40;;;;;;;2.67;1.83;;;;;;;5.26;80.91;98310.30;1753441;80;20933;-58
2022/01/06 07:30:07;;;;;;;5.43;1.77;;;;;;;5.26;80.86;98315.64;1754420;80;20970;-56
2022/01/06 07:32:43;;;;;;;1.13;1.03;;;;;;;5.25;80.63;98323.24;1759868;80;21122;-54
2022/01/06 07:35:10;;;;;;;0.97;0.60;;;;;;;5.25;80.51;98327.25;1751794;80;21921;-58
2022/01/06 07:37:36;;;;;;;0.70;0.50;;;;;;;5.21;79.12;98335.45;1752585;80;21756;-58
2022/01/06 07:40:03;;;;;;;1.23;0.40;;;;;;;5.14;78.50;98344.23;1722706;81;21349;-58
2022/01/06 07:42:30;;;;;;;1.43;0.50;;;;;;;5.04;77.12;98352.28;1733861;81;20922;-58
2022/01/06 07:44:59;;;;;;;1.20;0.30;;;;;;;4.88;76.49;98348.16;1734486;82;21100;-59
2022/01/06 07:47:25;;;;;;;1.90;0.40;;;;;;;4.75;75.42;98359.02;1731853;81;21553;-61
2022/01/06 07:49:53;;;;;;;0.90;0.30;;;;;;;4.60;74.86;98362.37;1730509;82;22458;-57
2022/01/06 07:52:19;;;;;;;1.93;0.50;;;;;;;4.49;74.31;98373.55;1729944;81;22366;-60
2022/01/06 07:54:45;;;;;;;0.70;0.40;;;;;;;4.39;73.81;98380.22;1728331;81;21030;-56
2022/01/06 07:57:11;;;;;;;0.80;0.50;;;;;;;4.29;73.39;98373.56;1725435;81;21118;-56
2022/01/06 07:59:38;;;;;;;0.87;0.40;;;;;;;4.23;73.38;98379.17;1729128;81;21082;-60
2022/01/06 08:02:05;;;;;;;1.00;0.50;;;;;;;4.22;73.33;98384.56;1727599;81;21424;-60
2022/01/06 08:04:31;;;;;;;0.90;0.40;;;;;;;4.21;73.12;98382.83;1731038;81;21091;-55
2022/01/06 08:06:58;;;;;;;1.30;0.50;;;;;;;4.16;73.01;98390.58;1729599;81;21071;-55
2022/01/06 08:09:25;;;;;;;0.70;0.50;;;;;;;4.12;72.82;98388.97;1730582;81;22124;-60
2022/01/06 08:11:51;;;;;;;0.60;0.30;;;;;;;4.07;72.82;98388.31;1729157;81;21068;-59
2022/01/06 08:14:19;;;;;;;2.57;0.50;;;;;;;4.03;72.79;98391.16;1730918;81;21036;-57
2022/01/06 08:16:46;;;;;;;0.70;0.40;;;;;;;3.99;72.84;98395.77;1733294;81;21159;-57
2022/01/06 08:19:12;;;;;;;2.87;0.40;;;;;;;3.98;72.89;98395.37;1730233;81;21105;-56
2022/01/06 08:21:39;;;;;;;1.07;0.30;;;;;;;3.97;72.85;98390.97;1730025;81;21149;-56
2022/01/06 08:24:06;;;;;;;0.93;0.40;;;;;;;3.97;72.74;98389.64;1729897;81;21639;-55
2022/01/06 08:26:33;;;;;;;0.60;0.40;;;;;;;3.98;72.74;98392.70;1698218;82;21063;-57
2022/01/06 08:28:59;;;;;;;0.80;0.50;;;;;;;3.99;72.67;98406.88;1704503;82;21664;-57
2022/01/06 08:31:25;;;;;;;3.07;0.47;;;;;;;3.98;72.04;98406.48;1700376;82;22326;-59
2022/01/06 08:33:52;;;;;;;1.10;0.40;;;;;;;3.94;71.93;98411.52;1697720;82;21138;-55
2022/01/06 08:36:18;;;;;;;0.87;0.50;;;;;;;3.88;71.78;98413.13;1700413;82;21092;-60
2022/01/06 08:38:45;;;;;;;2.47;0.60;;;;;;;3.85;71.78;98427.42;1700077;82;21075;-56
2022/01/06 08:41:11;;;;;;;2.33;0.60;;;;;;;3.81;71.57;98427.16;1701026;82;21558;-56
2022/01/06 08:43:38;;;;;;;0.80;0.50;;;;;;;3.76;71.53;98434.45;1706582;82;21637;-56
2022/01/06 08:46:04;;;;;;;0.90;0.50;;;;;;;3.73;71.63;98434.14;1703801;82;21511;-56
2022/01/06 08:48:31;;;;;;;4.73;0.70;;;;;;;3.75;71.55;98439.37;1705358;82;21260;-55
2022/01/06 08:50:57;;;;;;;2.67;0.77;;;;;;;3.79;71.50;98441.86;1725836;81;21016;-57
2022/01/06 08:53:24;;;;;;;1.10;0.53;;;;;;;3.87;71.44;98434.02;1697594;82;21614;-57
2022/01/06 08:55:50;;;;;;;1.93;0.60;;;;;;;3.89;70.92;98441.48;1724226;81;21138;-59
2022/01/06 08:58:16;;;;;;;3.10;0.60;;;;;;;3.89;70.56;98444.14;1694397;82;21708;-60
2022/01/06 09:00:43;;;;;;;1.83;0.60;;;;;;;3.89;70.37;98445.01;1720908;81;21509;-55
2022/01/06 09:03:10;;;;;;;3.47;0.60;;;;;;;3.88;70.37;98452.59;1726254;81;21397;-56
2022/01/06 09:05:37;;;;;;;2.53;0.50;;;;;;;3.84;69.61;98444.78;1692547;82;21416;-59
2022/01/06 09:08:05;;;;;;;1.83;1.27;;;;;;;3.74;69.30;98458.47;1723287;81;21062;-59
2022/01/06 09:10:34;;;;;;;1.00;0.60;;;;;;;3.68;69.29;98457.86;1694182;82;21198;-57
2022/01/06 09:13:01;;;;;;;2.20;0.47;;;;;;;3.64;69.19;98458.93;1691450;82;21557;-56
2022/01/06 09:15:28;;;;;;;2.00;0.50;;;;;;;3.63;69.07;98466.51;1694648;83;21546;-56
2022/01/06 09:17:54;;;;;;;2.33;0.50;;;;;;;3.64;69.20;98465.12;1723062;81;21028;-54
2022/01/06 09:20:21;;;;;;;2.20;0.60;;;;;;;3.70;69.28;98457.34;1716369;81;21113;-59
2022/01/06 09:22:48;;;;;;;1.80;0.50;;;;;;;3.73;69.33;98450.57;1690422;83;21892;-57
2022/01/06 09:25:15;;;;;;;2.53;0.60;;;;;;;3.76;69.29;98463.27;1720782;81;21043;-57
2022/01/06 09:27:42;;;;;;;0.90;0.60;;;;;;;3.79;69.13;98464.95;1745717;81;21091;-57
2022/01/06 09:30:09;;;;;;;2.80;0.60;;;;;;;3.81;69.24;98457.77;1740653;81;21086;-55
2022/01/06 09:32:37;;;;;;;4.30;0.67;;;;;;;3.85;69.32;98466.48;1743830;81;21558;-56
2022/01/06 09:35:04;;;;;;;1.90;1.07;;;;;;;3.86;69.21;98462.89;1720289;82;23285;-56
2022/01/06 09:37:30;;;;;;;1.67;0.60;;;;;;;3.86;69.14;98469.55;1719260;81;21096;-54
2022/01/06 09:39:57;;;;;;;3.17;0.67;;;;;;;3.85;68.98;98462.02;1721905;81;21212;-57
2022/01/06 09:42:23;;;;;;;2.80;0.50;;;;;;;3.83;69.04;98449.73;1724157;81;21324;-55
2022/01/06 09:44:50;;;;;;;4.00;0.50;;;;;;;3.84;69.01;98460.75;1724509;82;21056;-54
2022/01/06 09:47:17;;;;;;;0.70;0.50;;;;;;;3.87;68.96;98465.95;1742505;81;22031;-56
2022/01/06 09:49:44;;;;;;;2.40;0.60;;;;;;;3.89;68.96;98474.75;1742255;80;21175;-60
2022/01/06 09:52:13;;;;;;;1.20;0.50;;;;;;;3.90;68.77;98481.81;1745415;81;21049;-56
2022/01/06 09:54:40;;;;;;;2.20;0.50;;;;;;;3.91;68.77;98480.89;1742640;80;21088;-55
2022/01/06 09:57:06;;;;;;;2.80;0.50;;;;;;;3.93;68.58;98461.70;1737018;81;21045;-59
2022/01/06 09:59:33;;;;;;;1.70;0.60;;;;;;;3.90;68.59;98465.84;1717389;81;21526;-59
2022/01/06 10:02:01;;;;;;;1.93;0.50;;;;;;;3.88;68.76;98466.36;1717325;81;21469;-57
2022/01/06 10:04:28;;;;;;;1.80;0.60;;;;;;;3.90;68.84;98461.84;1742466;81;20939;-58
2022/01/06 10:07:07;;;;;;;1.33;0.43;;;;;;;3.91;68.72;98464.91;1742781;80;21683;-56
2022/01/06 10:09:34;;;;;;;1.40;0.47;;;;;;;3.90;68.41;98469.37;1716762;81;21026;-55
2022/01/06 10:12:03;;;;;;;2.50;0.50;;;;;;;3.91;68.62;98474.23;1724163;82;21054;-55
2022/01/06 10:14:45;;;;;;;1.90;0.50;;;;;;;3.92;68.72;98458.62;1726020;81;20894;-57
2022/01/06 10:17:09;;;;;;;2.30;0.50;;;;;;;3.95;68.71;98450.53;1724541;81;20998;-56
2022/01/06 10:19:42;;;;;;;1.20;0.50;;;;;;;4.02;68.99;98451.53;1723463;81;20957;-56
2022/01/06 10:22:19;;;;;;;2.20;0.60;;;;;;;4.10;68.97;98464.05;1742175;81;20946;-56
2022/01/06 10:24:47;;;;;;;2.00;0.60;;;;;;;4.18;68.68;98463.72;1724156;82;21162;-57
2022/01/06 10:27:19;;;;;;;0.83;0.50;;;;;;;4.23;67.95;98459.08;1707183;81;20966;-56
2022/01/06 10:29:50;;;;;;;1.93;0.60;;;;;;;4.26;67.53;98452.73;1742133;80;20962;-57
2022/01/06 10:32:19;;;;;;;2.97;0.53;;;;;;;4.28;67.39;98453.08;1717730;81;20920;-56
2022/01/06 10:34:49;;;;;;;1.53;1.10;;;;;;;4.29;67.36;98449.48;1721057;82;20926;-57
2022/01/06 10:37:24;;;;;;;1.17;0.60;;;;;;;4.34;67.30;98437.31;1748039;80;22202;-55
2022/01/06 10:39:54;;;;;;;2.07;0.60;;;;;;;4.34;67.23;98436.81;1746781;80;20914;-59
2022/01/06 10:42:26;;;;;;;1.00;0.60;;;;;;;4.36;67.14;98438.09;1748721;80;20894;-55
2022/01/06 10:45:05;;;;;;;2.13;0.60;;;;;;;4.36;66.89;98438.09;1722195;81;21403;-56
2022/01/06 10:47:36;;;;;;;8.60;0.83;;;;;;;4.32;66.56;98436.50;1720518;81;21053;-57
2022/01/06 10:50:36;;;;;;;1.97;0.70;;;;;;;4.29;66.48;98433.97;1745348;80;21533;-56
2022/01/06 10:53:10;;;;;;;1.63;0.77;;;;;;;4.27;66.46;98436.69;1745129;80;21100;-53
2022/01/06 10:55:41;;;;;;;;;;;;;;;4.25;66.09;98447.91;1747817;80;21148;-56
2022/01/06 10:58:15;;;;;;;0.97;0.60;;;;;;;4.18;66.06;98447.28;1743011;81;20240;-59
2022/01/06 11:00:52;;;;;;;1.47;0.70;;;;;;;4.13;66.35;98453.74;1726447;81;21050;-58
2022/01/06 11:03:20;;;;;;;3.40;0.70;;;;;;;4.11;66.53;98448.94;1728103;81;21910;-56
2022/01/06 11:05:53;;;;;;;2.07;0.70;;;;;;;4.13;66.82;98449.75;1730839;81;21040;-59
2022/01/06 11:08:32;;;;;;;1.98;0.50;;;;;;;4.16;66.97;98445.63;1728661;81;21498;-55
2022/01/06 11:13:45;;;;;;;1.00;0.60;;;;;;;4.25;66.84;98474.54;1728604;81;21046;-57
2022/01/06 11:16:15;;;;;;;1.50;0.60;;;;;;;4.28;66.52;98466.39;1725763;81;20996;-59
2022/01/06 11:18:45;;;;;;;1.57;0.57;;;;;;;4.31;66.29;98463.61;1731931;81;21098;-56
2022/01/06 11:21:13;;;;;;;2.00;0.60;;;;;;;4.34;66.38;98457.30;1729182;81;21070;-60
2022/01/06 11:23:39;;;;;;;1.43;0.50;;;;;;;4.35;66.12;98468.31;1730382;81;21029;-59
2022/01/06 11:26:12;;;;;;;1.00;0.60;;;;;;;4.35;65.96;98458.53;1727161;81;21396;-56
2022/01/06 11:28:42;;;;;;;1.83;0.60;;;;;;;4.36;65.73;98459.39;1729313;81;21839;-58
2022/01/06 11:31:23;;;;;;;1.83;0.60;;;;;;;4.28;65.75;98461.06;1728974;81;21085;-58
2022/01/06 11:33:52;;;;;;;2.30;0.60;;;;;;;4.25;65.86;98451.90;1730332;81;20964;-56
2022/01/06 11:36:24;;;;;;;1.40;0.60;;;;;;;4.25;65.75;98468.34;1728882;81;21056;-57
2022/01/06 11:38:51;;;;;;;0.97;0.63;;;;;;;4.21;65.71;98468.06;1728058;81;21060;-56
2022/01/06 11:41:18;;;;;;;1.43;0.60;;;;;;;4.14;65.73;98482.11;1728238;81;21430;-55
2022/01/06 11:43:46;;;;;;;0.87;0.60;;;;;;;4.10;65.80;98484.48;1726950;81;21931;-59
2022/01/06 11:46:13;;;;;;;1.27;0.70;;;;;;;4.06;65.75;98479.78;1731779;81;21064;-55
2022/01/06 11:48:53;;;;;;;2.10;0.87;;;;;;;4.01;65.72;98475.55;1729613;81;21558;-56
2022/01/06 11:51:31;;;;;;;1.90;0.77;;;;;;;3.99;65.98;98472.98;1725365;82;20963;-56
2022/01/06 11:53:58;;;;;;;1.37;0.70;;;;;;;3.97;66.00;98472.17;1730315;81;21148;-55
2022/01/06 11:56:25;;;;;;;1.77;0.80;;;;;;;3.97;66.00;98471.30;1731230;81;21050;-57